createdAt,value
2019-06-20T00:09:54.630Z,21.10
2019-06-20T00:19:56.083Z,21.00
2019-06-20T00:29:57.726Z,20.90
2019-06-20T00:39:59.165Z,20.90
2019-06-20T00:50:00.767Z,20.90
2019-06-20T01:00:05.195Z,20.90
2019-06-20T01:10:08.311Z,21.00
2019-06-20T01:20:09.838Z,21.20
2019-06-20T01:30:11.665Z,21.20
2019-06-20T01:40:12.986Z,21.20
2019-06-20T01:50:14.368Z,21.20
2019-06-20T02:00:31.474Z,21.10
2019-06-20T02:10:32.949Z,21.00
2019-06-20T02:20:45.191Z,20.90
2019-06-20T02:30:46.789Z,20.80
2019-06-20T02:40:48.247Z,20.80
2019-06-20T02:50:49.627Z,20.80
2019-06-20T03:00:55.432Z,20.80
2019-06-20T03:10:56.644Z,20.80
2019-06-20T03:20:57.969Z,20.80
2019-06-20T03:30:59.469Z,20.90
2019-06-20T03:41:00.995Z,21.10
2019-06-20T03:51:02.580Z,21.20
2019-06-20T04:01:04.013Z,21.40
2019-06-20T04:11:05.309Z,21.50
2019-06-20T04:21:06.556Z,21.70
2019-06-20T04:31:08.049Z,21.90
2019-06-20T04:41:09.585Z,22.20
2019-06-20T04:51:11.020Z,22.60
2019-06-20T05:01:12.339Z,23.10
2019-06-20T05:11:13.766Z,24.50
2019-06-20T05:21:15.270Z,26.20
2019-06-20T05:31:16.573Z,27.50
2019-06-20T05:41:17.881Z,28.80
2019-06-20T05:51:19.350Z,28.20
2019-06-20T06:01:20.680Z,26.70
2019-06-20T06:11:21.999Z,25.50
2019-06-20T06:21:23.266Z,24.90
2019-06-20T06:31:24.550Z,24.70
2019-06-20T06:41:26.649Z,24.60
2019-06-20T06:51:28.423Z,24.60
2019-06-20T07:01:29.987Z,24.50
2019-06-20T07:11:31.312Z,24.60
2019-06-20T07:21:32.523Z,24.90
2019-06-20T07:31:33.914Z,25.50
2019-06-20T07:41:35.576Z,25.70
2019-06-20T07:51:36.799Z,25.90
2019-06-20T08:01:38.357Z,26.00
2019-06-20T08:11:39.817Z,26.30
2019-06-20T08:21:44.062Z,26.80
2019-06-20T08:31:44.485Z,27.20
2019-06-20T08:41:46.067Z,28.70
2019-06-20T08:51:47.684Z,30.00
2019-06-20T09:01:49.320Z,30.70
2019-06-20T09:11:51.008Z,31.20
2019-06-20T09:21:53.922Z,31.00
2019-06-20T09:31:55.724Z,30.80
2019-06-20T09:41:57.042Z,30.40
2019-06-20T09:51:58.734Z,29.80
2019-06-20T10:02:00.681Z,29.20
2019-06-20T10:12:01.829Z,28.80
2019-06-20T10:22:03.357Z,28.30
2019-06-20T10:32:04.512Z,28.00
2019-06-20T10:42:06.373Z,28.00
2019-06-20T10:52:10.621Z,28.00
2019-06-20T11:02:11.947Z,28.30
2019-06-20T11:12:13.648Z,29.00
2019-06-20T11:22:15.636Z,29.90
2019-06-20T11:32:17.196Z,30.60
2019-06-20T11:42:18.613Z,30.90
2019-06-20T11:52:19.944Z,31.50
2019-06-20T12:02:21.290Z,33.10
2019-06-20T12:12:22.657Z,33.90
2019-06-20T12:22:24.118Z,34.90
2019-06-20T12:32:25.645Z,35.70
2019-06-20T12:42:27.280Z,35.60
2019-06-20T12:52:28.639Z,35.70
2019-06-20T13:02:31.799Z,36.00
2019-06-20T13:12:33.204Z,35.80
2019-06-20T13:22:34.568Z,36.10
2019-06-20T13:32:35.959Z,35.70
2019-06-20T13:42:39.067Z,35.50
2019-06-20T13:52:43.505Z,35.20
2019-06-20T14:02:46.487Z,34.40
2019-06-20T14:12:48.757Z,33.30
2019-06-20T14:22:50.233Z,32.80
2019-06-20T14:32:51.614Z,32.10
2019-06-20T14:42:54.253Z,31.60
2019-06-20T14:52:55.697Z,31.00
2019-06-20T15:02:58.685Z,30.70
2019-06-20T15:13:00.062Z,30.50
2019-06-20T15:23:01.356Z,30.40
2019-06-20T15:33:09.887Z,30.30
2019-06-20T15:43:05.731Z,30.30
2019-06-20T15:53:07.521Z,30.10
2019-06-20T16:03:11.278Z,30.20
2019-06-20T16:13:11.938Z,30.20
2019-06-20T16:23:13.183Z,30.10
2019-06-20T16:33:24.630Z,30.20
2019-06-20T16:43:17.671Z,30.30
2019-06-20T16:53:18.862Z,30.30
2019-06-20T17:03:20.114Z,30.20
2019-06-20T17:13:21.285Z,30.20
2019-06-20T17:23:22.692Z,30.00
2019-06-20T17:33:24.070Z,29.60
2019-06-20T17:43:25.686Z,29.00
2019-06-20T17:53:26.986Z,28.40
2019-06-20T18:03:28.338Z,28.10
2019-06-20T18:13:29.573Z,27.80
2019-06-20T18:23:32.250Z,27.60
2019-06-20T18:33:33.533Z,27.40
2019-06-20T18:43:34.832Z,27.20
2019-06-20T18:53:36.034Z,27.00
2019-06-20T19:03:37.593Z,26.70
2019-06-20T19:13:38.873Z,26.70
2019-06-20T19:23:41.795Z,26.70
2019-06-20T19:33:43.129Z,26.60
2019-06-20T19:43:44.427Z,26.30
2019-06-20T19:53:46.110Z,25.90
2019-06-20T20:03:47.489Z,25.60
2019-06-20T20:13:48.712Z,25.30
2019-06-20T20:23:49.987Z,25.00
2019-06-20T20:33:51.255Z,24.60
2019-06-20T20:43:52.608Z,24.20
2019-06-20T20:53:53.930Z,23.90
2019-06-20T21:03:55.377Z,23.70
2019-06-20T21:13:56.652Z,23.50
2019-06-20T21:23:57.984Z,23.20
2019-06-20T21:33:59.361Z,23.00
2019-06-20T21:44:00.596Z,22.90
2019-06-20T21:54:01.928Z,22.80
2019-06-20T22:04:03.934Z,22.70
2019-06-20T22:14:05.136Z,22.70
2019-06-20T22:24:06.531Z,22.60
2019-06-20T22:34:07.873Z,22.50
2019-06-20T22:44:09.234Z,22.40
2019-06-20T22:54:10.512Z,22.20
2019-06-20T23:04:11.704Z,22.00
2019-06-20T23:14:13.283Z,21.90
2019-06-20T23:24:14.590Z,21.70
2019-06-20T23:34:15.885Z,21.50
2019-06-20T23:44:17.213Z,21.50
2019-06-20T23:54:18.481Z,21.40
